createdAt,value
2023-02-16T00:01:48.191Z,97.99
2023-02-16T00:08:30.398Z,97.93
2023-02-16T00:15:19.467Z,97.98
2023-02-16T00:22:02.662Z,97.92
2023-02-16T00:28:45.831Z,97.94
2023-02-16T00:35:28.270Z,97.83
2023-02-16T00:42:26.778Z,98.02
2023-02-16T00:49:16.988Z,98.08
2023-02-16T00:55:59.198Z,98.48
2023-02-16T01:02:44.478Z,98.73
2023-02-16T01:09:49.733Z,98.62
2023-02-16T01:16:42.522Z,98.98
2023-02-16T01:23:24.805Z,99.03
2023-02-16T01:30:13.676Z,99.14
2023-02-16T01:36:58.737Z,99.07
2023-02-16T01:44:03.427Z,99.62
2023-02-16T01:50:58.902Z,99.16
2023-02-16T01:57:49.825Z,99.45
2023-02-16T02:05:05.432Z,99.39
2023-02-16T02:12:03.704Z,99.50
2023-02-16T02:18:46.290Z,99.35
2023-02-16T02:26:09.366Z,99.81
2023-02-16T02:33:31.306Z,99.77
2023-02-16T02:40:41.759Z,100.00
2023-02-16T02:47:39.214Z,99.96
2023-02-16T02:54:52.751Z,100.00
2023-02-16T03:01:37.923Z,100.00
2023-02-16T03:08:25.148Z,100.00
2023-02-16T03:15:09.099Z,100.00
2023-02-16T03:22:10.735Z,100.00
2023-02-16T03:29:12.297Z,100.00
2023-02-16T03:35:55.484Z,100.00
2023-02-16T03:42:37.860Z,100.00
2023-02-16T03:49:21.643Z,100.00
2023-02-16T03:56:04.068Z,100.00
2023-02-16T04:02:46.341Z,100.00
2023-02-16T04:09:28.539Z,100.00
2023-02-16T04:16:10.783Z,100.00
2023-02-16T04:22:53.860Z,100.00
2023-02-16T04:29:36.246Z,100.00
2023-02-16T04:36:18.618Z,100.00
2023-02-16T04:43:00.948Z,100.00
2023-02-16T04:49:43.327Z,100.00
2023-02-16T04:56:25.556Z,100.00
2023-02-16T05:03:07.850Z,100.00
2023-02-16T05:09:50.915Z,100.00
2023-02-16T05:16:33.314Z,100.00
2023-02-16T05:23:15.720Z,100.00
2023-02-16T05:29:59.844Z,100.00
2023-02-16T05:36:42.240Z,100.00
2023-02-16T05:43:24.514Z,100.00
2023-02-16T05:50:07.604Z,100.00
2023-02-16T05:56:52.260Z,100.00
2023-02-16T06:03:36.040Z,100.00
2023-02-16T06:10:18.784Z,100.00
2023-02-16T06:17:01.518Z,100.00
2023-02-16T06:23:44.019Z,100.00
2023-02-16T06:30:26.765Z,100.00
2023-02-16T06:37:09.001Z,100.00
2023-02-16T06:43:51.278Z,100.00
2023-02-16T06:50:33.496Z,100.00
2023-02-16T06:57:15.924Z,100.00
2023-02-16T07:03:58.454Z,100.00
2023-02-16T07:10:50.197Z,100.00
2023-02-16T07:17:32.976Z,100.00
2023-02-16T07:24:15.740Z,100.00
2023-02-16T07:30:58.168Z,100.00
2023-02-16T07:37:40.465Z,100.00
2023-02-16T07:44:22.872Z,100.00
2023-02-16T07:51:05.799Z,100.00
2023-02-16T07:57:49.521Z,100.00
2023-02-16T08:04:31.843Z,100.00
2023-02-16T08:11:23.835Z,100.00
2023-02-16T08:18:06.206Z,100.00
2023-02-16T08:24:48.601Z,100.00
2023-02-16T08:31:35.190Z,100.00
2023-02-16T08:38:20.450Z,100.00
2023-02-16T08:45:03.497Z,100.00
2023-02-16T08:51:49.150Z,100.00
2023-02-16T08:58:31.869Z,100.00
2023-02-16T09:05:14.078Z,100.00
2023-02-16T09:11:58.122Z,100.00
2023-02-16T09:18:40.975Z,100.00
2023-02-16T09:25:24.864Z,100.00
2023-02-16T09:32:10.873Z,100.00
2023-02-16T09:38:54.152Z,100.00
2023-02-16T09:45:48.689Z,100.00
2023-02-16T09:52:41.058Z,100.00
2023-02-16T10:00:04.611Z,98.93
2023-02-16T10:07:04.780Z,97.27
2023-02-16T10:13:54.907Z,94.65
2023-02-16T10:20:49.647Z,93.23
2023-02-16T10:27:42.746Z,91.25
2023-02-16T10:34:46.865Z,91.40
2023-02-16T10:41:39.205Z,90.83
2023-02-16T10:48:25.825Z,89.24
2023-02-16T10:55:09.094Z,87.43
2023-02-16T11:01:57.570Z,86.93
2023-02-16T11:08:55.123Z,86.37
2023-02-16T11:15:39.527Z,84.99
2023-02-16T11:22:37.186Z,84.08
2023-02-16T11:29:20.685Z,82.97
2023-02-16T11:36:05.430Z,83.19
2023-02-16T11:42:57.534Z,82.49
2023-02-16T11:49:42.068Z,82.20
2023-02-16T11:56:29.534Z,81.01
2023-02-16T12:03:33.508Z,81.38
2023-02-16T12:10:21.969Z,80.32
2023-02-16T12:17:41.622Z,80.14
2023-02-16T12:25:08.023Z,79.95
2023-02-16T12:32:16.142Z,79.26
2023-02-16T12:39:45.903Z,75.84
2023-02-16T12:46:45.843Z,75.86
2023-02-16T12:53:41.518Z,75.25
2023-02-16T13:00:43.699Z,72.08
2023-02-16T13:07:37.471Z,71.42
2023-02-16T13:14:34.012Z,71.72
2023-02-16T13:22:12.999Z,71.57
2023-02-16T13:29:42.295Z,70.75
2023-02-16T13:36:34.139Z,71.48
2023-02-16T13:43:25.018Z,71.60
2023-02-16T13:50:32.217Z,71.71
2023-02-16T13:57:35.644Z,72.17
2023-02-16T14:04:24.829Z,72.81
2023-02-16T14:11:10.781Z,73.62
2023-02-16T14:17:53.166Z,73.78
2023-02-16T14:24:38.569Z,73.77
2023-02-16T14:31:23.014Z,73.79
2023-02-16T14:38:20.850Z,74.17
2023-02-16T14:45:50.928Z,74.65
2023-02-16T14:52:42.148Z,75.14
2023-02-16T14:59:37.210Z,75.84
2023-02-16T15:06:36.482Z,76.26
2023-02-16T15:13:31.069Z,76.74
2023-02-16T15:20:38.737Z,77.12
2023-02-16T15:31:05.703Z,78.14
2023-02-16T15:37:48.069Z,78.69
2023-02-16T15:44:35.403Z,79.48
2023-02-16T15:51:31.628Z,80.46
2023-02-16T15:58:15.674Z,80.79
2023-02-16T16:05:01.441Z,81.39
2023-02-16T16:11:44.043Z,82.07
2023-02-16T16:18:43.591Z,82.47
2023-02-16T16:25:37.017Z,82.82
2023-02-16T16:32:28.918Z,83.16
2023-02-16T16:39:16.811Z,83.86
2023-02-16T16:46:29.846Z,84.85
2023-02-16T16:53:31.022Z,85.63
2023-02-16T17:00:14.611Z,86.15
2023-02-16T17:06:56.822Z,86.74
2023-02-16T17:13:39.196Z,87.48
2023-02-16T17:20:21.674Z,88.01
2023-02-16T17:27:03.977Z,88.01
2023-02-16T17:33:46.237Z,88.34
2023-02-16T17:40:28.508Z,88.65
2023-02-16T17:47:15.759Z,88.71
2023-02-16T17:53:58.121Z,89.24
2023-02-16T18:00:42.043Z,89.62
2023-02-16T18:07:27.245Z,90.16
2023-02-16T18:14:10.012Z,90.91
2023-02-16T18:20:52.420Z,91.55
2023-02-16T18:27:34.876Z,92.10
2023-02-16T18:34:17.493Z,92.54
2023-02-16T18:40:59.940Z,92.89
2023-02-16T18:47:44.398Z,93.07
2023-02-16T18:54:26.866Z,93.40
2023-02-16T19:01:24.960Z,93.57
2023-02-16T19:08:07.292Z,93.73
2023-02-16T19:14:49.648Z,93.72
2023-02-16T19:21:31.904Z,93.83
2023-02-16T19:28:14.181Z,94.05
2023-02-16T19:34:56.475Z,93.80
2023-02-16T19:41:41.824Z,93.62
2023-02-16T19:48:24.011Z,93.41
2023-02-16T19:55:06.520Z,92.95
2023-02-16T20:01:49.212Z,92.62
2023-02-16T20:08:31.648Z,92.09
2023-02-16T20:15:15.722Z,91.85
2023-02-16T20:21:58.274Z,91.33
2023-02-16T20:28:41.443Z,91.03
2023-02-16T20:35:23.888Z,90.86
2023-02-16T20:42:06.140Z,90.82
2023-02-16T20:48:50.096Z,90.62
2023-02-16T20:55:32.687Z,90.61
2023-02-16T21:02:15.180Z,90.48
2023-02-16T21:08:57.913Z,90.45
2023-02-16T21:15:40.287Z,90.40
2023-02-16T21:22:24.508Z,90.16
2023-02-16T21:29:06.800Z,90.31
2023-02-16T21:35:49.041Z,90.42
2023-02-16T21:42:34.689Z,90.75
2023-02-16T21:49:20.031Z,90.81
2023-02-16T21:56:16.925Z,91.00
2023-02-16T22:02:59.387Z,91.26
2023-02-16T22:09:42.590Z,91.38
2023-02-16T22:16:26.677Z,91.65
2023-02-16T22:23:08.996Z,91.97
2023-02-16T22:29:52.361Z,92.37
2023-02-16T22:36:36.361Z,92.42
2023-02-16T22:43:18.568Z,92.73
2023-02-16T22:50:01.094Z,93.04
2023-02-16T22:56:43.927Z,93.49
2023-02-16T23:03:27.416Z,93.65
2023-02-16T23:10:10.315Z,94.02
2023-02-16T23:16:56.855Z,94.24
2023-02-16T23:23:39.082Z,94.61
2023-02-16T23:30:21.719Z,94.50
2023-02-16T23:37:04.277Z,94.81
2023-02-16T23:43:46.576Z,94.68
2023-02-16T23:50:29.010Z,94.95
2023-02-16T23:57:11.762Z,95.20
